Time;durP1;ratioP1;P1;durP2;ratioP2;P2;SDS_P1;SDS_P2;PMS_P1;PMS_P2;Temp;Humidity;BMP_temperature;BMP_pressure;BME280_temperature;BME280_humidity;BME280_pressure;Samples;Min_cycle;Max_cycle;Signal;HPM_P1;HPM_P2
2021/11/13 00:00:00;;;;;;;247.93;49.17;;;3.90;99.90;;;;;;5088754;28;20406;-54
2021/11/13 00:02:26;;;;;;;289.10;51.63;;;3.50;99.90;;;;;;5088828;28;20905;-54
2021/11/13 00:04:52;;;;;;;237.60;47.22;;;3.70;99.90;;;;;;5089488;28;20379;-54
2021/11/13 00:07:18;;;;;;;269.87;53.00;;;3.70;99.90;;;;;;5091934;28;20409;-54
2021/11/13 00:09:44;;;;;;;211.25;42.90;;;3.70;99.90;;;;;;5092179;28;20381;-54
2021/11/13 00:12:10;;;;;;;281.52;51.42;;;3.70;99.90;;;;;;5092256;28;20413;-55
2021/11/13 00:14:36;;;;;;;207.60;43.50;;;3.70;99.90;;;;;;5091905;28;20378;-54
2021/11/13 00:17:02;;;;;;;220.70;42.83;;;3.70;99.90;;;;;;5092090;28;20415;-55
2021/11/13 00:19:29;;;;;;;418.17;58.03;;;3.80;99.90;;;;;;5091512;28;20728;-55
2021/11/13 00:21:55;;;;;;;385.10;57.63;;;5.00;99.90;;;;;;5092280;28;20385;-55
2021/11/13 00:24:21;;;;;;;130.10;35.57;;;3.90;99.90;;;;;;5091435;28;20375;-55
2021/11/13 00:26:46;;;;;;;207.50;43.58;;;4.00;99.90;;;;;;5092638;28;20366;-54
2021/11/13 00:29:12;;;;;;;391.25;58.13;;;4.00;99.90;;;;;;5074193;28;20394;-55
2021/11/13 00:31:38;;;;;;;284.52;47.72;;;5.00;99.90;;;;;;5092030;28;20743;-55
2021/11/13 00:34:04;;;;;;;235.23;44.13;;;4.00;99.90;;;;;;5092149;28;20378;-55
2021/11/13 00:36:30;;;;;;;372.90;52.63;;;4.10;99.90;;;;;;5090617;28;20412;-54
2021/11/13 00:38:55;;;;;;;264.37;43.53;;;4.10;99.90;;;;;;5091733;28;20398;-54
2021/11/13 00:41:22;;;;;;;326.13;52.03;;;4.20;99.90;;;;;;5091596;28;20835;-55
2021/11/13 00:43:48;;;;;;;217.18;39.70;;;4.20;99.90;;;;;;5091698;28;20473;-55
2021/11/13 00:46:14;;;;;;;187.85;37.85;;;4.10;99.90;;;;;;5073698;28;20872;-55
2021/11/13 00:48:40;;;;;;;449.80;63.00;;;4.10;99.90;;;;;;5091064;28;20378;-55
2021/11/13 00:51:06;;;;;;;427.00;66.87;;;5.00;99.90;;;;;;5091514;28;20394;-55
2021/11/13 00:53:32;;;;;;;351.20;51.30;;;3.80;99.90;;;;;;5090725;28;20377;-55
2021/11/13 00:55:59;;;;;;;290.45;46.55;;;5.20;99.90;;;;;;5091353;28;20378;-55
2021/11/13 00:58:26;;;;;;;390.13;59.73;;;3.70;99.90;;;;;;5090265;28;20444;-54
2021/11/13 01:00:52;;;;;;;220.93;46.97;;;3.80;99.90;;;;;;5091548;28;20412;-54
2021/11/13 01:03:18;;;;;;;296.25;51.33;;;3.90;99.90;;;;;;5091115;28;20370;-54
2021/11/13 01:05:44;;;;;;;231.35;39.53;;;3.80;99.90;;;;;;5091694;28;20851;-54
2021/11/13 01:08:10;;;;;;;232.40;42.78;;;3.80;99.90;;;;;;5091433;28;20371;-54
2021/11/13 01:10:36;;;;;;;200.40;42.92;;;3.80;99.90;;;;;;5090319;28;20501;-54
2021/11/13 01:13:02;;;;;;;163.30;39.10;;;3.80;99.90;;;;;;5091094;28;20397;-54
2021/11/13 01:15:28;;;;;;;200.93;44.88;;;4.90;99.90;;;;;;5090199;28;20378;-54
2021/11/13 01:17:54;;;;;;;249.63;44.55;;;3.80;99.90;;;;;;5090553;28;20402;-54
2021/11/13 01:20:21;;;;;;;240.50;44.80;;;3.80;99.90;;;;;;5090248;28;20842;-54
2021/11/13 01:22:48;;;;;;;234.25;44.28;;;3.70;99.90;;;;;;5091348;28;20386;-54
2021/11/13 01:25:14;;;;;;;191.02;42.10;;;4.90;99.90;;;;;;5090853;28;20370;-54
2021/11/13 01:27:40;;;;;;;331.27;49.50;;;3.70;99.90;;;;;;5089919;28;20409;-54
2021/11/13 01:30:07;;;;;;;122.57;33.33;;;3.70;99.90;;;;;;5090746;28;20521;-54
2021/11/13 01:32:33;;;;;;;251.73;45.55;;;3.70;99.90;;;;;;5089854;28;20766;-54
2021/11/13 01:34:59;;;;;;;287.73;44.30;;;3.70;99.90;;;;;;5090502;28;20379;-55
2021/11/13 01:37:24;;;;;;;256.50;44.97;;;3.70;99.90;;;;;;5089016;28;20517;-54
2021/11/13 01:39:53;;;;;;;290.38;51.47;;;4.00;99.90;;;;;;5090805;28;20386;-54
2021/11/13 01:42:19;;;;;;;292.10;45.25;;;3.70;99.90;;;;;;5090155;28;20385;-55
2021/11/13 01:44:45;;;;;;;256.05;43.05;;;3.70;99.90;;;;;;5090545;28;20831;-54
2021/11/13 01:47:11;;;;;;;206.33;41.30;;;3.60;99.90;;;;;;5090213;28;20420;-54
2021/11/13 01:49:37;;;;;;;323.13;49.92;;;3.50;99.90;;;;;;5071829;28;20413;-54
2021/11/13 01:52:10;;;;;;;222.05;41.30;;;4.80;99.90;;;;;;5090499;28;21008;-54
2021/11/13 01:54:39;;;;;;;263.92;42.83;;;4.80;99.90;;;;;;5089698;28;20417;-54
2021/11/13 01:57:09;;;;;;;247.35;44.03;;;3.40;99.90;;;;;;5090142;28;20479;-54
2021/11/13 01:59:39;;;;;;;266.83;46.92;;;3.40;99.90;;;;;;5089392;28;20412;-54
2021/11/13 02:02:06;;;;;;;214.63;43.90;;;3.30;99.90;;;;;;5072247;28;20428;-54
2021/11/13 02:04:32;;;;;;;238.93;43.38;;;4.20;99.90;;;;;;5089371;28;20378;-54
2021/11/13 02:06:59;;;;;;;227.30;43.55;;;4.30;99.90;;;;;;5090117;28;20430;-54
2021/11/13 02:09:25;;;;;;;176.00;36.78;;;3.20;99.90;;;;;;5089374;28;20848;-54
2021/11/13 02:11:50;;;;;;;174.85;34.60;;;3.40;99.90;;;;;;5090007;28;20451;-54
2021/11/13 02:14:16;;;;;;;233.73;45.07;;;3.20;99.90;;;;;;5089860;28;20363;-54
2021/11/13 02:16:42;;;;;;;228.63;44.33;;;2.30;99.90;;;;;;5088868;28;20760;-54
2021/11/13 02:19:08;;;;;;;409.35;58.83;;;4.30;99.90;;;;;;5090197;28;20378;-54
2021/11/13 02:21:34;;;;;;;198.48;37.95;;;4.30;99.90;;;;;;5089534;28;20889;-54
2021/11/13 02:24:00;;;;;;;168.10;36.90;;;3.30;99.90;;;;;;5090279;28;20835;-54
2021/11/13 02:26:26;;;;;;;171.68;39.88;;;4.50;99.90;;;;;;5089330;28;20399;-55
2021/11/13 02:28:55;;;;;;;223.93;40.27;;;3.20;99.90;;;;;;5088622;28;20378;-54
2021/11/13 02:31:31;;;;;;;141.40;31.77;;;3.20;99.90;;;;;;5089663;28;20507;-55
2021/11/13 02:33:57;;;;;;;189.85;37.92;;;3.00;99.90;;;;;;5089989;28;20386;-54
2021/11/13 02:36:23;;;;;;;119.25;34.03;;;2.90;99.90;;;;;;5088684;28;20871;-54
2021/11/13 02:38:54;;;;;;;216.80;43.67;;;4.40;99.90;;;;;;5089626;28;20721;-54
2021/11/13 02:41:22;;;;;;;188.15;40.45;;;2.80;99.90;;;;;;5089059;28;20394;-54
2021/11/13 02:43:48;;;;;;;255.98;45.58;;;3.30;99.90;;;;;;5088684;28;20443;-54
2021/11/13 02:46:15;;;;;;;271.70;42.58;;;2.80;99.90;;;;;;5089446;28;20457;-54
2021/11/13 02:48:42;;;;;;;241.95;45.85;;;3.50;99.90;;;;;;5088521;28;20485;-54
2021/11/13 02:51:09;;;;;;;179.75;37.75;;;2.80;99.90;;;;;;5089067;28;20374;-54
2021/11/13 02:53:35;;;;;;;153.57;33.33;;;3.50;99.90;;;;;;5088403;28;20386;-54
2021/11/13 02:56:03;;;;;;;179.75;35.55;;;3.20;99.90;;;;;;5088996;28;20953;-54
2021/11/13 02:58:29;;;;;;;251.93;40.40;;;2.90;99.90;;;;;;5088363;28;20404;-54
2021/11/13 03:01:04;;;;;;;247.95;43.70;;;3.00;99.90;;;;;;5089165;28;20436;-54
2021/11/13 03:03:30;;;;;;;219.07;39.60;;;3.10;99.90;;;;;;5088511;28;20378;-54
2021/11/13 03:06:04;;;;;;;216.80;38.77;;;3.10;99.90;;;;;;5089490;28;20457;-54
2021/11/13 03:08:33;;;;;;;195.02;35.22;;;3.10;99.90;;;;;;5086823;28;20398;-54
2021/11/13 03:11:03;;;;;;;186.38;33.90;;;3.30;99.90;;;;;;5088654;28;20428;-55
2021/11/13 03:13:30;;;;;;;144.75;30.70;;;3.10;99.90;;;;;;5069456;28;20485;-55
2021/11/13 03:15:57;;;;;;;138.75;30.90;;;3.00;99.90;;;;;;5088777;28;20374;-54
2021/11/13 03:18:23;;;;;;;160.45;33.35;;;4.20;99.90;;;;;;5088836;28;20400;-54
2021/11/13 03:20:49;;;;;;;112.13;28.13;;;3.10;99.90;;;;;;5088802;28;20400;-55
2021/11/13 03:23:16;;;;;;;98.70;26.83;;;3.10;99.90;;;;;;5070595;28;20452;-55
2021/11/13 03:26:01;;;;;;;116.57;30.35;;;3.10;99.90;;;;;;5088108;28;20469;-54
2021/11/13 03:28:29;;;;;;;105.60;25.92;;;2.90;99.90;;;;;;5069920;28;21043;-56
2021/11/13 03:30:55;;;;;;;147.88;30.00;;;3.80;99.90;;;;;;5088756;28;20416;-55
2021/11/13 03:33:21;;;;;;;121.43;31.95;;;3.50;99.90;;;;;;5088937;28;20434;-54
2021/11/13 03:35:47;;;;;;;113.07;27.60;;;3.00;99.90;;;;;;5087988;28;20398;-54
2021/11/13 03:38:15;;;;;;;75.30;23.97;;;4.10;99.90;;;;;;5088529;28;20374;-54
2021/11/13 03:40:44;;;;;;;67.65;23.65;;;3.00;99.90;;;;;;5091929;28;20871;-54
2021/11/13 03:43:10;;;;;;;81.43;24.83;;;2.90;99.90;;;;;;5093030;28;20370;-54
2021/11/13 03:45:37;;;;;;;90.75;27.08;;;2.90;99.90;;;;;;5092384;28;20374;-54
2021/11/13 03:48:04;;;;;;;93.75;27.42;;;3.00;99.90;;;;;;5093290;28;20378;-55
2021/11/13 03:50:30;;;;;;;124.63;30.83;;;3.10;99.90;;;;;;5073566;28;20506;-55
2021/11/13 03:52:56;;;;;;;112.32;30.85;;;3.20;99.90;;;;;;5092261;28;20520;-55
2021/11/13 03:55:24;;;;;;;124.18;32.63;;;3.10;99.90;;;;;;5074539;28;20390;-54
2021/11/13 03:57:50;;;;;;;96.55;31.05;;;3.40;99.90;;;;;;5073542;28;20779;-54
2021/11/13 04:00:17;;;;;;;105.30;31.23;;;3.10;99.90;;;;;;5092468;28;20385;-55
2021/11/13 04:02:46;;;;;;;99.25;30.55;;;3.10;99.90;;;;;;5091792;28;20377;-55
2021/11/13 04:05:12;;;;;;;107.85;31.73;;;3.20;99.90;;;;;;5092054;28;20449;-55
2021/11/13 04:07:38;;;;;;;115.20;30.63;;;3.20;99.90;;;;;;5091331;28;20843;-55
2021/11/13 04:10:06;;;;;;;154.63;34.20;;;3.20;99.90;;;;;;5092664;28;20381;-55
2021/11/13 04:12:32;;;;;;;123.53;35.22;;;3.30;99.90;;;;;;5091340;28;20504;-55
2021/11/13 04:14:58;;;;;;;133.23;35.25;;;3.30;99.90;;;;;;5092197;28;20466;-54
2021/11/13 04:17:24;;;;;;;135.50;33.40;;;3.30;99.90;;;;;;5091838;28;20963;-54
2021/11/13 04:19:50;;;;;;;97.32;32.42;;;3.20;99.90;;;;;;5091832;28;20900;-55
2021/11/13 04:22:15;;;;;;;100.00;32.80;;;4.40;99.90;;;;;;5091907;28;20419;-54
2021/11/13 04:24:41;;;;;;;103.43;32.97;;;3.10;99.90;;;;;;5091268;28;20396;-54
2021/11/13 04:27:07;;;;;;;88.38;30.55;;;3.10;99.90;;;;;;5091476;28;20444;-54
2021/11/13 04:29:33;;;;;;;116.65;34.20;;;3.10;99.90;;;;;;5091092;28;20375;-55
2021/11/13 04:31:59;;;;;;;100.23;31.53;;;3.10;99.90;;;;;;5091952;28;20870;-53
2021/11/13 04:34:26;;;;;;;106.53;33.07;;;3.00;99.90;;;;;;5091935;28;20374;-53
2021/11/13 04:36:54;;;;;;;116.20;36.10;;;3.10;99.90;;;;;;5090878;28;20401;-54
2021/11/13 04:39:25;;;;;;;104.30;34.28;;;4.70;99.90;;;;;;5091435;28;20803;-54
2021/11/13 04:41:53;;;;;;;127.83;35.17;;;3.10;99.90;;;;;;5090733;28;20475;-54
2021/11/13 04:44:19;;;;;;;88.33;33.30;;;3.20;99.90;;;;;;5091595;28;20370;-54
2021/11/13 04:46:45;;;;;;;109.15;33.50;;;4.20;99.90;;;;;;5091137;28;20382;-54
2021/11/13 04:49:11;;;;;;;88.60;34.90;;;3.50;99.90;;;;;;5091615;28;20371;-54
2021/11/13 04:51:37;;;;;;;79.85;32.22;;;3.20;99.90;;;;;;5090229;28;20377;-54
2021/11/13 04:54:03;;;;;;;89.70;33.27;;;3.20;99.90;;;;;;5091757;28;20869;-54
2021/11/13 04:56:29;;;;;;;67.53;30.00;;;3.40;99.90;;;;;;5091428;28;20415;-54
2021/11/13 04:58:54;;;;;;;75.85;31.80;;;3.40;99.90;;;;;;5091009;28;20435;-53
2021/11/13 05:01:20;;;;;;;70.57;32.00;;;3.40;99.90;;;;;;5092263;28;20733;-53
2021/11/13 05:03:46;;;;;;;71.73;31.27;;;3.50;99.90;;;;;;5090195;28;20378;-54
2021/11/13 05:06:11;;;;;;;68.47;31.02;;;3.60;99.90;;;;;;5090833;28;20863;-53
2021/11/13 05:08:37;;;;;;;67.70;31.50;;;3.60;99.90;;;;;;5089826;28;20720;-54
2021/11/13 05:11:03;;;;;;;56.40;27.90;;;3.50;99.90;;;;;;5090919;28;20508;-54
2021/11/13 05:13:28;;;;;;;59.45;29.55;;;3.50;99.90;;;;;;5090879;28;20396;-53
2021/11/13 05:15:54;;;;;;;52.07;27.20;;;3.40;99.90;;;;;;5090457;28;20370;-58
2021/11/13 05:18:21;;;;;;;51.33;27.93;;;5.20;99.90;;;;;;5090897;28;20734;-54
2021/11/13 05:20:47;;;;;;;51.92;27.70;;;3.50;99.90;;;;;;5072234;28;20782;-54
2021/11/13 05:23:13;;;;;;;53.73;27.77;;;3.90;99.90;;;;;;5091042;28;20370;-53
2021/11/13 05:25:38;;;;;;;48.37;24.97;;;3.50;99.90;;;;;;5090075;28;20370;-54
2021/11/13 05:28:04;;;;;;;46.93;25.60;;;4.20;99.90;;;;;;5091131;28;20453;-53
2021/11/13 05:30:30;;;;;;;42.20;23.48;;;3.60;99.90;;;;;;5091305;28;20409;-53
2021/11/13 05:32:55;;;;;;;46.07;24.40;;;3.40;99.90;;;;;;5090403;28;20366;-53
2021/11/13 05:35:22;;;;;;;48.80;24.83;;;4.80;99.90;;;;;;5072575;28;20397;-53
2021/11/13 05:37:49;;;;;;;50.38;25.27;;;3.40;99.90;;;;;;5090084;28;20432;-53
2021/11/13 05:40:15;;;;;;;47.88;24.30;;;3.40;99.90;;;;;;5090363;28;20394;-53
2021/11/13 05:42:43;;;;;;;45.50;25.35;;;3.40;99.90;;;;;;5090265;28;20387;-53
2021/11/13 05:45:10;;;;;;;49.38;26.10;;;3.30;99.90;;;;;;5090891;28;20381;-53
2021/11/13 05:47:37;;;;;;;54.50;27.88;;;3.20;99.90;;;;;;5089747;28;20736;-53
2021/11/13 05:50:09;;;;;;;48.05;27.52;;;4.00;99.90;;;;;;5090519;28;20366;-53
2021/11/13 05:52:34;;;;;;;53.70;27.38;;;3.30;99.90;;;;;;5089659;28;20414;-55
2021/11/13 05:55:00;;;;;;;50.10;26.25;;;3.30;99.90;;;;;;5090521;28;20478;-54
2021/11/13 05:57:26;;;;;;;46.40;27.08;;;3.40;99.90;;;;;;5090251;28;20397;-54
2021/11/13 05:59:51;;;;;;;50.10;26.90;;;3.50;99.90;;;;;;5090180;28;20720;-54
2021/11/13 06:02:17;;;;;;;51.75;27.90;;;4.60;99.90;;;;;;5089580;28;20370;-54
2021/11/13 06:04:43;;;;;;;55.75;27.88;;;3.90;99.90;;;;;;5089827;28;20865;-54
2021/11/13 06:07:08;;;;;;;51.70;28.00;;;3.50;99.90;;;;;;5090135;28;20393;-53
2021/11/13 06:09:34;;;;;;;52.47;26.63;;;4.50;99.90;;;;;;5090064;28;20389;-55
2021/11/13 06:12:00;;;;;;;51.67;27.40;;;3.80;99.90;;;;;;5089620;28;20696;-54
2021/11/13 06:14:26;;;;;;;48.23;26.97;;;3.60;99.90;;;;;;5090157;28;20374;-54
2021/11/13 06:16:51;;;;;;;45.75;26.20;;;3.60;99.90;;;;;;5089169;28;20447;-54
2021/11/13 06:19:17;;;;;;;46.67;25.10;;;3.60;99.90;;;;;;5089370;28;20696;-54
2021/11/13 06:21:43;;;;;;;45.23;25.53;;;3.50;99.90;;;;;;5089185;28;20416;-54
2021/11/13 06:24:10;;;;;;;44.83;25.77;;;3.50;99.90;;;;;;5089287;28;20847;-53
2021/11/13 06:26:36;;;;;;;44.55;25.23;;;3.50;99.90;;;;;;5089255;28;20382;-56
2021/11/13 06:29:02;;;;;;;42.33;24.92;;;3.60;99.90;;;;;;5090087;28;20496;-54
2021/11/13 06:31:27;;;;;;;42.45;24.48;;;3.50;99.90;;;;;;5088945;28;20410;-54
2021/11/13 06:33:53;;;;;;;42.20;24.27;;;3.50;99.90;;;;;;5088978;28;20429;-54
2021/11/13 06:36:19;;;;;;;47.50;25.83;;;5.00;99.90;;;;;;5089756;28;20398;-54
2021/11/13 06:38:45;;;;;;;41.33;25.65;;;5.10;99.90;;;;;;5088904;28;20378;-54
2021/11/13 06:41:10;;;;;;;40.05;23.85;;;3.40;99.90;;;;;;5089581;28;20389;-54
2021/11/13 06:43:36;;;;;;;41.40;24.70;;;3.40;99.90;;;;;;5089174;28;20468;-55
2021/11/13 06:46:02;;;;;;;41.97;25.45;;;4.10;99.90;;;;;;5088664;28;20874;-54
2021/11/13 06:48:28;;;;;;;43.42;24.75;;;3.40;99.90;;;;;;5089106;28;20374;-54
2021/11/13 06:50:53;;;;;;;43.60;25.63;;;3.50;99.90;;;;;;5088957;28;20392;-54
2021/11/13 06:53:20;;;;;;;42.45;25.58;;;3.50;99.90;;;;;;5089289;28;20465;-54
2021/11/13 06:55:48;;;;;;;43.90;24.70;;;3.50;99.90;;;;;;5088580;28;20796;-54
2021/11/13 06:58:14;;;;;;;39.85;23.23;;;3.50;99.90;;;;;;5089220;28;20408;-54
2021/11/13 07:00:39;;;;;;;45.42;24.60;;;3.50;99.90;;;;;;5088717;28;20378;-55
2021/11/13 07:03:05;;;;;;;40.42;24.63;;;3.50;99.90;;;;;;5087916;28;20392;-55
2021/11/13 07:05:32;;;;;;;42.85;24.88;;;3.70;99.90;;;;;;5080309;28;20489;-54
2021/11/13 07:07:58;;;;;;;43.05;25.25;;;3.70;99.90;;;;;;5062026;28;20383;-54
2021/11/13 07:10:25;;;;;;;39.45;24.98;;;3.70;99.90;;;;;;5075154;28;20403;-54
2021/11/13 07:12:51;;;;;;;41.35;25.70;;;3.80;99.90;;;;;;5068247;28;20453;-54
2021/11/13 07:15:18;;;;;;;36.40;23.10;;;3.80;99.90;;;;;;5069236;28;20708;-53
2021/11/13 07:17:45;;;;;;;38.92;24.30;;;3.80;99.90;;;;;;5070741;28;20490;-54
2021/11/13 07:20:12;;;;;;;40.78;24.23;;;3.90;99.90;;;;;;5088746;28;20787;-53
2021/11/13 07:22:39;;;;;;;38.80;23.73;;;4.00;99.90;;;;;;5079804;28;20379;-54
2021/11/13 07:25:12;;;;;;;40.90;23.70;;;4.10;99.90;;;;;;5068755;28;20463;-54
2021/11/13 07:27:39;;;;;;;33.97;21.77;;;4.10;99.90;;;;;;5068211;28;20734;-55
2021/11/13 07:30:07;;;;;;;35.75;21.60;;;4.10;99.90;;;;;;5050651;28;20414;-55
2021/11/13 07:32:33;;;;;;;30.53;20.43;;;4.30;99.90;;;;;;5068650;28;20434;-54
2021/11/13 07:34:59;;;;;;;32.10;19.90;;;4.40;99.90;;;;;;5068187;28;21235;-54
2021/11/13 07:37:25;;;;;;;33.35;20.25;;;4.50;99.90;;;;;;5068315;28;20553;-54
2021/11/13 07:39:55;;;;;;;35.45;20.88;;;4.60;99.90;;;;;;5078157;28;20759;-54
2021/11/13 07:42:21;;;;;;;28.85;19.98;;;4.80;99.90;;;;;;5082968;28;20485;-54
2021/11/13 07:44:47;;;;;;;30.23;19.60;;;5.00;99.90;;;;;;5080714;28;20405;-51
2021/11/13 07:47:13;;;;;;;31.08;19.52;;;5.30;99.90;;;;;;5071945;28;20393;-51
2021/11/13 07:49:39;;;;;;;28.15;18.73;;;5.40;99.90;;;;;;5067983;28;20376;-54
2021/11/13 07:52:06;;;;;;;32.53;18.75;;;5.50;99.90;;;;;;5069088;28;20871;-53
2021/11/13 07:54:32;;;;;;;29.90;18.85;;;5.70;99.90;;;;;;5088363;28;20378;-53
2021/11/13 07:56:57;;;;;;;27.67;18.40;;;5.90;99.90;;;;;;5088192;28;20410;-53
2021/11/13 07:59:23;;;;;;;26.90;17.57;;;7.10;99.90;;;;;;5088649;28;20378;-53
2021/11/13 08:01:48;;;;;;;27.83;18.30;;;6.00;99.90;;;;;;5078775;28;20425;-53
2021/11/13 08:04:14;;;;;;;30.65;19.50;;;6.00;99.90;;;;;;5080604;28;20394;-53
2021/11/13 08:06:40;;;;;;;28.73;19.30;;;5.90;99.90;;;;;;5080045;28;20448;-53
2021/11/13 08:09:05;;;;;;;26.98;17.85;;;5.90;99.90;;;;;;5079847;28;20382;-53
2021/11/13 08:11:31;;;;;;;29.10;19.03;;;7.10;99.90;;;;;;5077830;28;20413;-53
2021/11/13 08:13:57;;;;;;;26.40;17.65;;;5.80;99.90;;;;;;5077445;28;20556;-53
2021/11/13 08:16:23;;;;;;;26.42;17.23;;;5.80;99.90;;;;;;5080825;28;20408;-53
2021/11/13 08:18:49;;;;;;;25.45;17.50;;;5.80;99.90;;;;;;5076329;28;20409;-55
2021/11/13 08:21:15;;;;;;;26.50;17.13;;;5.80;99.90;;;;;;5071555;28;20907;-54
2021/11/13 08:23:41;;;;;;;27.17;17.05;;;5.60;99.90;;;;;;5070579;28;20510;-55
2021/11/13 08:26:07;;;;;;;27.73;17.90;;;5.60;99.90;;;;;;5088987;28;20371;-53
2021/11/13 08:28:33;;;;;;;27.08;17.30;;;5.70;99.90;;;;;;5091873;28;20389;-54
2021/11/13 08:30:59;;;;;;;26.00;17.05;;;5.80;99.90;;;;;;5090889;28;20378;-53
2021/11/13 08:33:26;;;;;;;26.70;18.00;;;5.90;99.90;;;;;;5092098;28;20439;-53
2021/11/13 08:35:52;;;;;;;27.30;17.37;;;5.90;99.90;;;;;;5072970;28;20412;-53
2021/11/13 08:38:20;;;;;;;25.50;17.57;;;6.00;99.90;;;;;;5091944;28;20462;-53
2021/11/13 08:40:47;;;;;;;27.45;17.75;;;5.90;99.90;;;;;;5091727;28;20389;-53
2021/11/13 08:43:13;;;;;;;27.77;17.00;;;5.90;99.90;;;;;;5091863;28;20389;-53
2021/11/13 08:45:39;;;;;;;25.15;17.27;;;6.00;99.90;;;;;;5091912;28;20394;-53
2021/11/13 08:48:05;;;;;;;26.13;17.75;;;6.20;99.90;;;;;;5091392;28;20382;-53
2021/11/13 08:50:32;;;;;;;26.10;16.73;;;6.00;99.90;;;;;;5091662;28;20385;-53
2021/11/13 08:53:01;;;;;;;25.20;17.00;;;6.10;99.90;;;;;;5090769;28;20888;-53
2021/11/13 08:55:29;;;;;;;26.13;17.70;;;6.20;99.90;;;;;;5091580;28;20895;-53
2021/11/13 08:57:56;;;;;;;30.50;18.63;;;6.30;99.90;;;;;;5090538;28;20493;-53
2021/11/13 09:00:31;;;;;;;34.28;22.38;;;6.40;99.90;;;;;;5091423;28;20378;-53
2021/11/13 09:03:01;;;;;;;31.70;20.50;;;6.60;99.90;;;;;;5090462;28;20439;-53
2021/11/13 09:05:26;;;;;;;30.13;18.90;;;6.80;99.90;;;;;;5091832;28;20373;-53
2021/11/13 09:07:54;;;;;;;25.90;17.80;;;6.90;99.90;;;;;;5090689;28;20382;-53
2021/11/13 09:10:20;;;;;;;25.95;17.08;;;7.10;99.90;;;;;;5091339;28;20389;-53
2021/11/13 09:12:46;;;;;;;25.83;18.42;;;7.20;99.90;;;;;;5091446;28;20840;-54
2021/11/13 09:15:27;;;;;;;25.83;17.80;;;7.30;99.90;;;;;;5071195;28;20372;-53
2021/11/13 09:17:54;;;;;;;33.67;20.13;;;7.50;99.90;;;;;;5069938;28;20440;-52
2021/11/13 09:20:21;;;;;;;26.48;17.60;;;8.00;99.90;;;;;;5070706;28;20933;-53
2021/11/13 09:22:48;;;;;;;23.45;16.90;;;8.70;99.90;;;;;;5070079;28;20414;-55
2021/11/13 09:25:14;;;;;;;24.38;16.13;;;8.90;99.90;;;;;;5071096;28;20438;-53
2021/11/13 09:27:43;;;;;;;25.40;17.10;;;9.10;99.90;;;;;;5070384;28;20483;-53
2021/11/13 09:30:12;;;;;;;23.05;16.30;;;9.30;99.90;;;;;;5069838;28;21048;-53
2021/11/13 09:32:38;;;;;;;21.40;15.80;;;9.50;99.90;;;;;;5071107;28;20450;-53
2021/11/13 09:35:04;;;;;;;23.15;15.90;;;9.70;99.90;;;;;;5070124;28;20854;-53
2021/11/13 09:37:31;;;;;;;23.75;15.98;;;9.90;99.90;;;;;;5070098;28;20733;-54
2021/11/13 09:39:58;;;;;;;22.48;14.98;;;11.50;99.90;;;;;;5070304;28;20402;-53
2021/11/13 09:42:24;;;;;;;21.90;16.00;;;13.40;99.90;;;;;;5070187;28;20376;-54
2021/11/13 09:44:51;;;;;;;19.58;15.60;;;15.10;99.90;;;;;;5051633;28;20392;-56
2021/11/13 09:47:17;;;;;;;17.77;14.38;;;16.00;99.90;;;;;;5070309;28;20423;-54
2021/11/13 09:49:44;;;;;;;18.45;15.00;;;16.10;99.90;;;;;;5070014;28;20388;-54
2021/11/13 09:52:12;;;;;;;22.35;16.48;;;15.30;99.90;;;;;;5069877;28;20481;-54
2021/11/13 09:54:42;;;;;;;22.65;17.70;;;14.20;99.90;;;;;;5070326;28;20468;-52
2021/11/13 09:57:07;;;;;;;28.55;17.70;;;12.80;99.90;;;;;;5069316;28;20415;-55
2021/11/13 09:59:33;;;;;;;24.42;16.42;;;11.90;99.90;;;;;;5070636;28;20387;-55
2021/11/13 10:01:59;;;;;;;28.42;18.30;;;11.20;99.90;;;;;;5069152;28;20770;-54
2021/11/13 10:04:25;;;;;;;26.52;17.40;;;10.90;99.90;;;;;;5069884;28;20469;-54
2021/11/13 10:06:51;;;;;;;25.02;17.38;;;10.50;99.90;;;;;;5069756;28;20425;-54
2021/11/13 10:09:17;;;;;;;29.00;17.98;;;10.20;99.90;;;;;;5069112;28;20851;-55
2021/11/13 10:11:48;;;;;;;25.65;17.23;;;9.90;99.90;;;;;;5081306;28;20461;-54
2021/11/13 10:14:14;;;;;;;23.98;16.50;;;9.90;99.90;;;;;;5086095;28;20401;-54
2021/11/13 10:16:46;;;;;;;22.50;16.10;;;10.00;99.90;;;;;;5088297;28;20394;-54
2021/11/13 10:19:17;;;;;;;22.48;16.10;;;10.00;99.90;;;;;;5087965;28;20929;-54
2021/11/13 10:21:45;;;;;;;24.65;16.92;;;10.00;99.90;;;;;;5071661;28;20778;-54
2021/11/13 10:24:17;;;;;;;23.48;16.95;;;10.10;99.90;;;;;;5089277;28;20386;-55
2021/11/13 10:26:46;;;;;;;25.08;16.75;;;10.10;99.90;;;;;;5090519;28;20394;-55
2021/11/13 10:29:18;;;;;;;21.83;15.45;;;10.00;99.90;;;;;;5089063;28;20382;-54
2021/11/13 10:31:47;;;;;;;23.23;16.08;;;10.10;99.90;;;;;;5090020;28;20867;-55
2021/11/13 10:34:18;;;;;;;21.97;15.40;;;10.20;99.90;;;;;;5071451;28;21317;-55
2021/11/13 10:36:47;;;;;;;24.15;16.00;;;10.00;99.90;;;;;;5089648;28;20911;-55
2021/11/13 10:39:17;;;;;;;22.80;16.97;;;10.00;99.90;;;;;;5088972;28;20370;-55
2021/11/13 10:41:54;;;;;;;23.00;15.60;;;9.80;99.90;;;;;;5089545;28;20385;-55
2021/11/13 10:44:26;;;;;;;23.85;16.77;;;9.80;99.90;;;;;;5090037;28;20425;-55
2021/11/13 10:46:52;;;;;;;26.25;17.65;;;10.00;99.90;;;;;;5089589;28;20370;-55
2021/11/13 10:49:18;;;;;;;30.60;18.50;;;9.80;99.90;;;;;;5070876;28;20421;-55
2021/11/13 10:52:00;;;;;;;25.23;18.35;;;9.80;99.90;;;;;;5088372;28;20736;-54
2021/11/13 10:54:26;;;;;;;27.73;18.80;;;9.90;99.90;;;;;;5077795;28;20956;-54
2021/11/13 10:57:04;;;;;;;26.02;18.45;;;9.80;99.90;;;;;;5085392;28;20438;-55
2021/11/13 10:59:42;;;;;;;25.15;17.25;;;10.00;99.90;;;;;;5078228;28;20901;-54
2021/11/13 11:02:15;;;;;;;26.70;19.23;;;10.00;99.90;;;;;;5074043;28;20449;-54
2021/11/13 11:04:42;;;;;;;33.85;25.27;;;9.90;99.90;;;;;;5075110;28;20492;-54
2021/11/13 11:07:25;;;;;;;28.30;20.97;;;9.80;99.90;;;;;;5081525;28;20494;-55
2021/11/13 11:10:08;;;;;;;26.13;18.70;;;9.70;99.90;;;;;;5085899;28;20474;-55
2021/11/13 11:12:36;;;;;;;23.98;17.80;;;9.50;99.90;;;;;;5067354;28;20565;-55
2021/11/13 11:15:08;;;;;;;30.20;19.55;;;9.70;99.90;;;;;;5083363;28;20497;-54
2021/11/13 11:17:34;;;;;;;28.98;20.52;;;8.70;99.90;;;;;;5057367;28;20460;-54
2021/11/13 11:20:07;;;;;;;24.77;18.50;;;10.20;99.90;;;;;;5070570;28;20769;-54
2021/11/13 11:22:33;;;;;;;27.20;18.08;;;10.30;99.90;;;;;;5081431;28;20479;-54
2021/11/13 11:25:06;;;;;;;28.63;18.42;;;10.30;99.90;;;;;;5077362;28;20391;-54
2021/11/13 11:27:35;;;;;;;26.83;19.23;;;10.50;99.90;;;;;;5071966;28;20418;-55
2021/11/13 11:30:22;;;;;;;29.97;20.23;;;10.60;99.90;;;;;;5081668;28;20395;-56
2021/11/13 11:32:59;;;;;;;27.17;19.00;;;10.60;99.90;;;;;;5072485;28;20404;-54
2021/11/13 11:35:29;;;;;;;24.13;16.40;;;10.50;99.90;;;;;;5078846;28;20413;-55
2021/11/13 11:38:06;;;;;;;24.27;15.60;;;10.60;99.90;;;;;;5072028;28;20409;-55
2021/11/13 11:40:35;;;;;;;21.73;15.00;;;10.80;99.90;;;;;;5079652;28;20759;-55
2021/11/13 11:43:02;;;;;;;22.13;14.90;;;10.70;99.90;;;;;;5082245;28;20374;-55
2021/11/13 11:45:31;;;;;;;20.70;15.02;;;10.70;99.90;;;;;;5084190;28;20398;-55
2021/11/13 11:47:58;;;;;;;21.25;13.38;;;10.60;99.90;;;;;;5085550;28;20873;-54
2021/11/13 11:50:30;;;;;;;19.25;13.95;;;10.50;99.90;;;;;;5083854;28;20469;-55
2021/11/13 11:53:06;;;;;;;20.70;14.13;;;10.50;99.90;;;;;;5085167;28;20386;-54
2021/11/13 11:55:33;;;;;;;20.42;14.15;;;10.50;99.90;;;;;;5084134;28;20847;-54
2021/11/13 11:58:11;;;;;;;20.70;14.20;;;10.50;99.90;;;;;;5078923;28;20494;-54
2021/11/13 12:00:38;;;;;;;19.08;13.88;;;10.50;99.90;;;;;;5077288;28;20539;-54
2021/11/13 12:03:05;;;;;;;18.87;13.80;;;10.50;99.90;;;;;;5083309;28;20448;-54
2021/11/13 12:05:34;;;;;;;20.40;14.83;;;10.50;99.90;;;;;;5079958;28;20484;-54
2021/11/13 12:08:19;;;;;;;19.50;14.30;;;10.50;99.90;;;;;;5084063;28;20473;-54
2021/11/13 12:10:44;;;;;;;20.53;14.20;;;10.50;99.90;;;;;;5085818;28;20408;-54
2021/11/13 12:13:24;;;;;;;21.90;14.35;;;10.50;99.90;;;;;;5077719;28;20478;-53
2021/11/13 12:15:51;;;;;;;25.60;16.45;;;10.60;99.90;;;;;;5080093;28;20858;-54
2021/11/13 12:18:21;;;;;;;24.95;17.17;;;10.60;99.90;;;;;;5059136;28;20405;-55
2021/11/13 12:20:51;;;;;;;26.45;17.67;;;10.50;99.90;;;;;;5087019;28;20394;-54
2021/11/13 12:23:39;;;;;;;33.17;22.58;;;10.30;99.90;;;;;;5075228;28;20478;-55
2021/11/13 12:26:11;;;;;;;22.43;16.00;;;10.40;99.90;;;;;;5075186;28;20402;-54
2021/11/13 12:28:45;;;;;;;24.67;16.88;;;10.50;99.90;;;;;;5081469;28;20398;-54
2021/11/13 12:31:17;;;;;;;24.55;17.00;;;10.60;99.90;;;;;;5082542;28;20405;-54